sensor_id;sensor_type;location;lat;lon;timestamp;P1;durP1;ratioP1;P2;durP2;ratioP2
5831;SDS011;50943;51.448;7.646;2023-08-01T00:00:38;3.53;;;1.43;;
5831;SDS011;50943;51.448;7.646;2023-08-01T00:03:04;1.47;;;1.00;;
5831;SDS011;50943;51.448;7.646;2023-08-01T00:05:31;1.37;;;0.83;;
5831;SDS011;50943;51.448;7.646;2023-08-01T00:07:59;2.60;;;1.13;;
5831;SDS011;50943;51.448;7.646;2023-08-01T00:10:27;2.27;;;1.20;;
5831;SDS011;50943;51.448;7.646;2023-08-01T00:12:54;2.93;;;1.10;;
5831;SDS011;50943;51.448;7.646;2023-08-01T00:15:20;1.47;;;0.93;;
5831;SDS011;50943;51.448;7.646;2023-08-01T00:17:48;3.93;;;1.10;;
5831;SDS011;50943;51.448;7.646;2023-08-01T00:20:14;2.00;;;1.00;;
5831;SDS011;50943;51.448;7.646;2023-08-01T00:22:41;7.90;;;1.07;;
5831;SDS011;50943;51.448;7.646;2023-08-01T00:25:08;2.60;;;0.93;;
5831;SDS011;50943;51.448;7.646;2023-08-01T00:27:34;2.73;;;0.83;;
5831;SDS011;50943;51.448;7.646;2023-08-01T00:30:01;1.70;;;0.90;;
5831;SDS011;50943;51.448;7.646;2023-08-01T00:32:27;1.40;;;0.90;;
5831;SDS011;50943;51.448;7.646;2023-08-01T00:34:56;1.93;;;0.70;;
5831;SDS011;50943;51.448;7.646;2023-08-01T00:37:22;2.03;;;0.90;;
5831;SDS011;50943;51.448;7.646;2023-08-01T00:39:49;5.70;;;0.87;;
5831;SDS011;50943;51.448;7.646;2023-08-01T00:42:15;1.40;;;0.90;;
5831;SDS011;50943;51.448;7.646;2023-08-01T00:44:42;1.87;;;0.80;;
5831;SDS011;50943;51.448;7.646;2023-08-01T00:47:08;3.60;;;0.90;;
5831;SDS011;50943;51.448;7.646;2023-08-01T00:49:35;1.93;;;0.90;;
5831;SDS011;50943;51.448;7.646;2023-08-01T00:52:04;1.50;;;0.80;;
5831;SDS011;50943;51.448;7.646;2023-08-01T00:54:31;1.20;;;0.77;;
5831;SDS011;50943;51.448;7.646;2023-08-01T00:57:01;1.93;;;0.97;;
5831;SDS011;50943;51.448;7.646;2023-08-01T00:59:28;1.20;;;0.90;;
5831;SDS011;50943;51.448;7.646;2023-08-01T01:01:55;2.53;;;0.67;;
5831;SDS011;50943;51.448;7.646;2023-08-01T01:04:21;1.40;;;0.90;;
5831;SDS011;50943;51.448;7.646;2023-08-01T01:06:49;1.73;;;0.80;;
5831;SDS011;50943;51.448;7.646;2023-08-01T01:09:19;1.23;;;0.80;;
5831;SDS011;50943;51.448;7.646;2023-08-01T01:11:46;1.87;;;0.80;;
5831;SDS011;50943;51.448;7.646;2023-08-01T01:14:13;1.93;;;0.80;;
5831;SDS011;50943;51.448;7.646;2023-08-01T01:16:39;3.47;;;0.70;;
5831;SDS011;50943;51.448;7.646;2023-08-01T01:19:06;2.87;;;1.00;;
5831;SDS011;50943;51.448;7.646;2023-08-01T01:24:26;1.30;;;0.90;;
5831;SDS011;50943;51.448;7.646;2023-08-01T01:26:53;1.30;;;0.70;;
5831;SDS011;50943;51.448;7.646;2023-08-01T01:29:21;1.10;;;0.70;;
5831;SDS011;50943;51.448;7.646;2023-08-01T01:31:48;1.67;;;0.80;;
5831;SDS011;50943;51.448;7.646;2023-08-01T01:34:14;2.03;;;0.70;;
5831;SDS011;50943;51.448;7.646;2023-08-01T01:36:41;1.17;;;0.60;;
5831;SDS011;50943;51.448;7.646;2023-08-01T01:39:09;1.07;;;0.67;;
5831;SDS011;50943;51.448;7.646;2023-08-01T01:41:35;1.20;;;0.63;;
5831;SDS011;50943;51.448;7.646;2023-08-01T01:44:02;1.83;;;1.23;;
5831;SDS011;50943;51.448;7.646;2023-08-01T01:46:29;1.70;;;0.70;;
5831;SDS011;50943;51.448;7.646;2023-08-01T01:48:55;1.30;;;0.80;;
5831;SDS011;50943;51.448;7.646;2023-08-01T01:51:22;1.10;;;0.70;;
5831;SDS011;50943;51.448;7.646;2023-08-01T01:53:52;1.87;;;0.80;;
5831;SDS011;50943;51.448;7.646;2023-08-01T01:56:20;3.40;;;0.90;;
5831;SDS011;50943;51.448;7.646;2023-08-01T01:58:47;1.97;;;0.80;;
5831;SDS011;50943;51.448;7.646;2023-08-01T02:01:13;2.60;;;1.00;;
5831;SDS011;50943;51.448;7.646;2023-08-01T02:03:40;4.60;;;1.23;;
5831;SDS011;50943;51.448;7.646;2023-08-01T02:06:06;1.97;;;1.10;;
5831;SDS011;50943;51.448;7.646;2023-08-01T02:08:33;2.30;;;1.10;;
5831;SDS011;50943;51.448;7.646;2023-08-01T02:10:59;1.73;;;1.30;;
5831;SDS011;50943;51.448;7.646;2023-08-01T02:13:27;2.43;;;1.37;;
5831;SDS011;50943;51.448;7.646;2023-08-01T02:15:54;3.07;;;1.57;;
5831;SDS011;50943;51.448;7.646;2023-08-01T02:18:21;1.67;;;1.10;;
5831;SDS011;50943;51.448;7.646;2023-08-01T02:20:47;2.30;;;1.60;;
5831;SDS011;50943;51.448;7.646;2023-08-01T02:23:14;3.10;;;1.70;;
5831;SDS011;50943;51.448;7.646;2023-08-01T02:25:40;2.10;;;1.43;;
5831;SDS011;50943;51.448;7.646;2023-08-01T02:28:07;2.60;;;1.70;;
5831;SDS011;50943;51.448;7.646;2023-08-01T02:30:35;2.50;;;1.80;;
5831;SDS011;50943;51.448;7.646;2023-08-01T02:33:02;3.70;;;1.50;;
5831;SDS011;50943;51.448;7.646;2023-08-01T02:35:28;2.47;;;1.50;;
5831;SDS011;50943;51.448;7.646;2023-08-01T02:37:55;2.53;;;1.60;;
5831;SDS011;50943;51.448;7.646;2023-08-01T02:40:21;2.40;;;1.60;;
5831;SDS011;50943;51.448;7.646;2023-08-01T02:42:48;4.63;;;1.93;;
5831;SDS011;50943;51.448;7.646;2023-08-01T02:45:14;3.27;;;1.73;;
5831;SDS011;50943;51.448;7.646;2023-08-01T02:47:42;3.90;;;1.77;;
5831;SDS011;50943;51.448;7.646;2023-08-01T02:50:09;4.00;;;1.80;;
5831;SDS011;50943;51.448;7.646;2023-08-01T02:52:36;4.10;;;2.30;;
5831;SDS011;50943;51.448;7.646;2023-08-01T02:55:02;3.50;;;2.03;;
5831;SDS011;50943;51.448;7.646;2023-08-01T02:57:29;4.30;;;2.40;;
5831;SDS011;50943;51.448;7.646;2023-08-01T02:59:56;5.67;;;2.50;;
5831;SDS011;50943;51.448;7.646;2023-08-01T03:02:22;8.10;;;2.90;;
5831;SDS011;50943;51.448;7.646;2023-08-01T03:04:50;5.33;;;2.53;;
5831;SDS011;50943;51.448;7.646;2023-08-01T03:07:16;6.10;;;3.00;;
5831;SDS011;50943;51.448;7.646;2023-08-01T03:09:43;14.40;;;3.77;;
5831;SDS011;50943;51.448;7.646;2023-08-01T03:12:11;6.80;;;3.27;;
5831;SDS011;50943;51.448;7.646;2023-08-01T03:14:37;9.40;;;3.70;;
5831;SDS011;50943;51.448;7.646;2023-08-01T03:17:06;8.70;;;3.50;;
5831;SDS011;50943;51.448;7.646;2023-08-01T03:19:33;7.97;;;3.83;;
5831;SDS011;50943;51.448;7.646;2023-08-01T03:22:01;9.90;;;4.27;;
5831;SDS011;50943;51.448;7.646;2023-08-01T03:24:27;7.60;;;4.50;;
5831;SDS011;50943;51.448;7.646;2023-08-01T03:26:54;11.93;;;5.63;;
5831;SDS011;50943;51.448;7.646;2023-08-01T03:29:21;8.03;;;5.20;;
5831;SDS011;50943;51.448;7.646;2023-08-01T03:31:47;9.37;;;5.50;;
5831;SDS011;50943;51.448;7.646;2023-08-01T03:34:14;8.77;;;6.20;;
5831;SDS011;50943;51.448;7.646;2023-08-01T03:36:40;10.13;;;6.70;;
5831;SDS011;50943;51.448;7.646;2023-08-01T03:39:08;8.93;;;7.23;;
5831;SDS011;50943;51.448;7.646;2023-08-01T03:41:36;10.87;;;7.67;;
5831;SDS011;50943;51.448;7.646;2023-08-01T03:44:03;12.67;;;7.57;;
5831;SDS011;50943;51.448;7.646;2023-08-01T03:46:29;13.87;;;7.63;;
5831;SDS011;50943;51.448;7.646;2023-08-01T03:48:57;16.63;;;9.50;;
5831;SDS011;50943;51.448;7.646;2023-08-01T03:51:23;14.00;;;9.30;;
5831;SDS011;50943;51.448;7.646;2023-08-01T03:53:50;19.00;;;10.77;;
5831;SDS011;50943;51.448;7.646;2023-08-01T03:56:17;20.90;;;10.60;;
5831;SDS011;50943;51.448;7.646;2023-08-01T03:58:44;22.60;;;11.70;;
5831;SDS011;50943;51.448;7.646;2023-08-01T04:01:10;29.50;;;12.47;;
5831;SDS011;50943;51.448;7.646;2023-08-01T04:03:37;24.30;;;13.27;;
5831;SDS011;50943;51.448;7.646;2023-08-01T04:06:04;26.13;;;14.03;;
5831;SDS011;50943;51.448;7.646;2023-08-01T04:08:30;29.23;;;15.77;;
5831;SDS011;50943;51.448;7.646;2023-08-01T04:10:57;28.93;;;16.27;;
5831;SDS011;50943;51.448;7.646;2023-08-01T04:13:25;29.03;;;16.80;;
5831;SDS011;50943;51.448;7.646;2023-08-01T04:15:51;33.73;;;18.27;;
5831;SDS011;50943;51.448;7.646;2023-08-01T04:18:18;42.30;;;18.87;;
5831;SDS011;50943;51.448;7.646;2023-08-01T04:20:44;37.87;;;19.13;;
5831;SDS011;50943;51.448;7.646;2023-08-01T04:23:12;37.03;;;20.80;;
5831;SDS011;50943;51.448;7.646;2023-08-01T04:25:40;37.73;;;20.50;;
5831;SDS011;50943;51.448;7.646;2023-08-01T04:28:07;42.37;;;21.27;;
5831;SDS011;50943;51.448;7.646;2023-08-01T04:30:34;44.57;;;22.70;;
5831;SDS011;50943;51.448;7.646;2023-08-01T04:33:03;48.33;;;24.20;;
5831;SDS011;50943;51.448;7.646;2023-08-01T04:35:30;51.20;;;26.27;;
5831;SDS011;50943;51.448;7.646;2023-08-01T04:37:56;43.13;;;22.27;;
5831;SDS011;50943;51.448;7.646;2023-08-01T04:40:23;43.70;;;23.27;;
5831;SDS011;50943;51.448;7.646;2023-08-01T04:42:49;43.30;;;23.77;;
5831;SDS011;50943;51.448;7.646;2023-08-01T04:45:16;40.50;;;22.97;;
5831;SDS011;50943;51.448;7.646;2023-08-01T04:47:44;45.97;;;23.00;;
5831;SDS011;50943;51.448;7.646;2023-08-01T04:50:11;44.20;;;22.70;;
5831;SDS011;50943;51.448;7.646;2023-08-01T04:52:37;39.53;;;21.70;;
5831;SDS011;50943;51.448;7.646;2023-08-01T04:55:04;49.47;;;21.60;;
5831;SDS011;50943;51.448;7.646;2023-08-01T04:57:31;35.67;;;20.10;;
5831;SDS011;50943;51.448;7.646;2023-08-01T04:59:58;33.10;;;20.00;;
5831;SDS011;50943;51.448;7.646;2023-08-01T05:02:24;38.50;;;19.17;;
5831;SDS011;50943;51.448;7.646;2023-08-01T05:04:53;33.40;;;18.67;;
5831;SDS011;50943;51.448;7.646;2023-08-01T05:07:21;37.70;;;17.63;;
5831;SDS011;50943;51.448;7.646;2023-08-01T05:09:48;23.93;;;15.50;;
5831;SDS011;50943;51.448;7.646;2023-08-01T05:12:15;30.23;;;15.13;;
5831;SDS011;50943;51.448;7.646;2023-08-01T05:14:41;29.07;;;14.00;;
5831;SDS011;50943;51.448;7.646;2023-08-01T05:17:08;28.23;;;13.47;;
5831;SDS011;50943;51.448;7.646;2023-08-01T05:19:35;28.73;;;13.03;;
5831;SDS011;50943;51.448;7.646;2023-08-01T05:22:03;31.50;;;12.47;;
5831;SDS011;50943;51.448;7.646;2023-08-01T05:24:29;24.70;;;12.00;;
5831;SDS011;50943;51.448;7.646;2023-08-01T05:26:56;26.67;;;12.67;;
5831;SDS011;50943;51.448;7.646;2023-08-01T05:29:22;23.67;;;12.53;;
5831;SDS011;50943;51.448;7.646;2023-08-01T05:31:49;27.10;;;12.90;;
5831;SDS011;50943;51.448;7.646;2023-08-01T05:34:15;23.43;;;13.93;;
5831;SDS011;50943;51.448;7.646;2023-08-01T05:36:42;30.50;;;13.63;;
5831;SDS011;50943;51.448;7.646;2023-08-01T05:39:10;31.17;;;15.10;;
5831;SDS011;50943;51.448;7.646;2023-08-01T05:41:36;32.67;;;15.47;;
5831;SDS011;50943;51.448;7.646;2023-08-01T05:44:03;30.33;;;16.43;;
5831;SDS011;50943;51.448;7.646;2023-08-01T05:46:30;28.37;;;17.57;;
5831;SDS011;50943;51.448;7.646;2023-08-01T05:48:56;33.80;;;17.00;;
5831;SDS011;50943;51.448;7.646;2023-08-01T05:51:23;26.00;;;16.47;;
5831;SDS011;50943;51.448;7.646;2023-08-01T05:53:49;39.20;;;17.50;;
5831;SDS011;50943;51.448;7.646;2023-08-01T05:56:17;33.23;;;17.20;;
5831;SDS011;50943;51.448;7.646;2023-08-01T05:58:45;34.20;;;18.73;;
5831;SDS011;50943;51.448;7.646;2023-08-01T06:01:11;35.57;;;18.77;;
5831;SDS011;50943;51.448;7.646;2023-08-01T06:03:38;45.10;;;19.53;;
5831;SDS011;50943;51.448;7.646;2023-08-01T06:06:04;40.80;;;19.80;;
5831;SDS011;50943;51.448;7.646;2023-08-01T06:08:31;34.27;;;18.30;;
5831;SDS011;50943;51.448;7.646;2023-08-01T06:10:57;31.93;;;17.97;;
5831;SDS011;50943;51.448;7.646;2023-08-01T06:13:25;33.87;;;19.03;;
5831;SDS011;50943;51.448;7.646;2023-08-01T06:15:52;31.40;;;18.77;;
5831;SDS011;50943;51.448;7.646;2023-08-01T06:18:18;32.60;;;17.83;;
5831;SDS011;50943;51.448;7.646;2023-08-01T06:20:45;33.00;;;16.33;;
5831;SDS011;50943;51.448;7.646;2023-08-01T06:23:12;35.10;;;17.77;;
5831;SDS011;50943;51.448;7.646;2023-08-01T06:25:38;40.27;;;17.70;;
5831;SDS011;50943;51.448;7.646;2023-08-01T06:28:05;34.97;;;15.70;;
5831;SDS011;50943;51.448;7.646;2023-08-01T06:30:32;34.87;;;16.77;;
5831;SDS011;50943;51.448;7.646;2023-08-01T06:32:59;36.50;;;16.90;;
5831;SDS011;50943;51.448;7.646;2023-08-01T06:35:26;30.03;;;16.70;;
5831;SDS011;50943;51.448;7.646;2023-08-01T06:37:52;36.43;;;17.00;;
5831;SDS011;50943;51.448;7.646;2023-08-01T06:40:19;40.87;;;16.97;;
5831;SDS011;50943;51.448;7.646;2023-08-01T06:42:45;39.23;;;17.70;;
5831;SDS011;50943;51.448;7.646;2023-08-01T06:45:12;37.93;;;17.43;;
5831;SDS011;50943;51.448;7.646;2023-08-01T06:47:40;27.13;;;17.17;;
5831;SDS011;50943;51.448;7.646;2023-08-01T06:50:06;39.53;;;19.50;;
5831;SDS011;50943;51.448;7.646;2023-08-01T06:52:33;38.87;;;19.70;;
5831;SDS011;50943;51.448;7.646;2023-08-01T06:55:00;39.93;;;20.90;;
5831;SDS011;50943;51.448;7.646;2023-08-01T06:57:26;51.37;;;22.27;;
5831;SDS011;50943;51.448;7.646;2023-08-01T06:59:53;35.30;;;19.40;;
5831;SDS011;50943;51.448;7.646;2023-08-01T07:02:19;44.87;;;19.87;;
5831;SDS011;50943;51.448;7.646;2023-08-01T07:04:47;37.50;;;18.90;;
5831;SDS011;50943;51.448;7.646;2023-08-01T07:07:14;36.47;;;17.80;;
5831;SDS011;50943;51.448;7.646;2023-08-01T07:09:40;36.67;;;19.10;;
5831;SDS011;50943;51.448;7.646;2023-08-01T07:12:07;42.40;;;18.40;;
5831;SDS011;50943;51.448;7.646;2023-08-01T07:14:34;36.37;;;16.83;;
5831;SDS011;50943;51.448;7.646;2023-08-01T07:17:00;27.50;;;16.57;;
5831;SDS011;50943;51.448;7.646;2023-08-01T07:19:27;34.73;;;17.93;;
5831;SDS011;50943;51.448;7.646;2023-08-01T07:21:55;43.67;;;18.77;;
5831;SDS011;50943;51.448;7.646;2023-08-01T07:24:21;25.50;;;15.77;;
5831;SDS011;50943;51.448;7.646;2023-08-01T07:26:48;29.00;;;15.20;;
5831;SDS011;50943;51.448;7.646;2023-08-01T07:29:14;25.53;;;13.43;;
5831;SDS011;50943;51.448;7.646;2023-08-01T07:31:41;23.20;;;14.27;;
5831;SDS011;50943;51.448;7.646;2023-08-01T07:34:08;33.23;;;14.90;;
5831;SDS011;50943;51.448;7.646;2023-08-01T07:36:34;31.07;;;15.27;;
5831;SDS011;50943;51.448;7.646;2023-08-01T07:39:02;31.27;;;15.17;;
5831;SDS011;50943;51.448;7.646;2023-08-01T07:41:29;30.83;;;15.80;;
5831;SDS011;50943;51.448;7.646;2023-08-01T07:43:56;33.53;;;16.10;;
5831;SDS011;50943;51.448;7.646;2023-08-01T07:46:22;25.70;;;14.83;;
5831;SDS011;50943;51.448;7.646;2023-08-01T07:48:49;20.10;;;14.10;;
5831;SDS011;50943;51.448;7.646;2023-08-01T07:51:18;28.33;;;15.63;;
5831;SDS011;50943;51.448;7.646;2023-08-01T07:53:45;28.30;;;14.30;;
5831;SDS011;50943;51.448;7.646;2023-08-01T07:56:12;21.73;;;12.93;;
5831;SDS011;50943;51.448;7.646;2023-08-01T07:58:39;23.30;;;14.77;;
5831;SDS011;50943;51.448;7.646;2023-08-01T08:01:06;23.53;;;14.70;;
5831;SDS011;50943;51.448;7.646;2023-08-01T08:03:32;25.47;;;14.40;;
5831;SDS011;50943;51.448;7.646;2023-08-01T08:05:59;23.70;;;13.87;;
5831;SDS011;50943;51.448;7.646;2023-08-01T08:08:25;27.20;;;14.73;;
5831;SDS011;50943;51.448;7.646;2023-08-01T08:10:52;23.13;;;13.27;;
5831;SDS011;50943;51.448;7.646;2023-08-01T08:13:20;18.70;;;12.53;;
5831;SDS011;50943;51.448;7.646;2023-08-01T08:15:47;25.17;;;14.27;;
5831;SDS011;50943;51.448;7.646;2023-08-01T08:18:13;28.97;;;15.10;;
5831;SDS011;50943;51.448;7.646;2023-08-01T08:20:41;20.00;;;13.40;;
5831;SDS011;50943;51.448;7.646;2023-08-01T08:23:08;20.03;;;13.23;;
5831;SDS011;50943;51.448;7.646;2023-08-01T08:25:35;17.83;;;12.60;;
5831;SDS011;50943;51.448;7.646;2023-08-01T08:28:02;26.43;;;13.93;;
5831;SDS011;50943;51.448;7.646;2023-08-01T08:30:30;19.60;;;12.90;;
5831;SDS011;50943;51.448;7.646;2023-08-01T08:32:57;20.23;;;11.23;;
5831;SDS011;50943;51.448;7.646;2023-08-01T08:35:23;17.80;;;10.80;;
5831;SDS011;50943;51.448;7.646;2023-08-01T08:37:50;18.07;;;11.17;;
5831;SDS011;50943;51.448;7.646;2023-08-01T08:40:16;18.00;;;9.97;;
5831;SDS011;50943;51.448;7.646;2023-08-01T08:42:43;21.60;;;11.67;;
5831;SDS011;50943;51.448;7.646;2023-08-01T08:45:11;20.50;;;11.40;;
5831;SDS011;50943;51.448;7.646;2023-08-01T08:47:40;20.70;;;11.37;;
5831;SDS011;50943;51.448;7.646;2023-08-01T08:50:08;17.90;;;11.60;;
5831;SDS011;50943;51.448;7.646;2023-08-01T08:52:35;25.90;;;12.77;;
5831;SDS011;50943;51.448;7.646;2023-08-01T08:55:02;15.70;;;8.03;;
5831;SDS011;50943;51.448;7.646;2023-08-01T08:57:29;12.43;;;6.30;;
5831;SDS011;50943;51.448;7.646;2023-08-01T08:59:56;13.57;;;6.27;;
5831;SDS011;50943;51.448;7.646;2023-08-01T09:02:22;12.53;;;6.17;;
5831;SDS011;50943;51.448;7.646;2023-08-01T09:04:51;11.73;;;6.43;;
5831;SDS011;50943;51.448;7.646;2023-08-01T09:07:17;13.33;;;5.50;;
5831;SDS011;50943;51.448;7.646;2023-08-01T09:09:46;8.63;;;5.13;;
5831;SDS011;50943;51.448;7.646;2023-08-01T09:12:12;10.20;;;5.37;;
5831;SDS011;50943;51.448;7.646;2023-08-01T09:14:39;11.13;;;6.20;;
5831;SDS011;50943;51.448;7.646;2023-08-01T09:17:06;8.53;;;5.40;;
5831;SDS011;50943;51.448;7.646;2023-08-01T09:19:34;8.53;;;4.43;;
5831;SDS011;50943;51.448;7.646;2023-08-01T09:22:02;7.57;;;4.93;;
5831;SDS011;50943;51.448;7.646;2023-08-01T09:24:36;10.43;;;4.70;;
5831;SDS011;50943;51.448;7.646;2023-08-01T09:27:03;9.73;;;5.47;;
5831;SDS011;50943;51.448;7.646;2023-08-01T09:29:30;9.53;;;4.67;;
5831;SDS011;50943;51.448;7.646;2023-08-01T09:31:57;7.83;;;4.73;;
5831;SDS011;50943;51.448;7.646;2023-08-01T09:34:25;7.60;;;4.50;;
5831;SDS011;50943;51.448;7.646;2023-08-01T09:36:57;10.17;;;4.53;;
5831;SDS011;50943;51.448;7.646;2023-08-01T09:39:25;9.07;;;5.83;;
5831;SDS011;50943;51.448;7.646;2023-08-01T09:41:55;9.10;;;5.57;;
5831;SDS011;50943;51.448;7.646;2023-08-01T09:44:22;12.50;;;5.13;;
5831;SDS011;50943;51.448;7.646;2023-08-01T09:46:54;6.43;;;4.10;;
5831;SDS011;50943;51.448;7.646;2023-08-01T09:49:22;7.00;;;3.90;;
5831;SDS011;50943;51.448;7.646;2023-08-01T09:51:49;7.13;;;4.07;;
5831;SDS011;50943;51.448;7.646;2023-08-01T09:54:16;7.83;;;4.57;;
5831;SDS011;50943;51.448;7.646;2023-08-01T09:56:45;12.27;;;4.30;;
5831;SDS011;50943;51.448;7.646;2023-08-01T09:59:13;4.90;;;3.67;;
5831;SDS011;50943;51.448;7.646;2023-08-01T10:01:43;5.87;;;3.40;;
5831;SDS011;50943;51.448;7.646;2023-08-01T10:04:10;6.40;;;3.73;;
5831;SDS011;50943;51.448;7.646;2023-08-01T10:06:37;6.97;;;3.40;;
5831;SDS011;50943;51.448;7.646;2023-08-01T10:09:05;6.17;;;3.67;;
5831;SDS011;50943;51.448;7.646;2023-08-01T10:11:34;7.53;;;3.80;;
5831;SDS011;50943;51.448;7.646;2023-08-01T10:14:03;9.07;;;4.00;;
5831;SDS011;50943;51.448;7.646;2023-08-01T10:16:30;8.30;;;3.33;;
5831;SDS011;50943;51.448;7.646;2023-08-01T10:18:57;4.63;;;2.90;;
5831;SDS011;50943;51.448;7.646;2023-08-01T10:21:25;6.43;;;3.37;;
5831;SDS011;50943;51.448;7.646;2023-08-01T10:23:52;6.33;;;3.33;;
5831;SDS011;50943;51.448;7.646;2023-08-01T10:26:20;7.73;;;3.40;;
5831;SDS011;50943;51.448;7.646;2023-08-01T10:28:49;8.50;;;3.20;;
5831;SDS011;50943;51.448;7.646;2023-08-01T10:31:19;5.70;;;2.90;;
5831;SDS011;50943;51.448;7.646;2023-08-01T10:33:47;4.47;;;2.63;;
5831;SDS011;50943;51.448;7.646;2023-08-01T10:36:15;7.30;;;3.03;;
5831;SDS011;50943;51.448;7.646;2023-08-01T10:38:46;4.80;;;2.87;;
5831;SDS011;50943;51.448;7.646;2023-08-01T10:41:20;5.93;;;2.93;;
5831;SDS011;50943;51.448;7.646;2023-08-01T10:43:47;8.33;;;3.70;;
5831;SDS011;50943;51.448;7.646;2023-08-01T10:46:14;5.47;;;3.07;;
5831;SDS011;50943;51.448;7.646;2023-08-01T10:48:51;6.67;;;2.47;;
5831;SDS011;50943;51.448;7.646;2023-08-01T10:51:18;3.93;;;2.63;;
5831;SDS011;50943;51.448;7.646;2023-08-01T10:53:45;6.47;;;2.80;;
5831;SDS011;50943;51.448;7.646;2023-08-01T10:56:15;5.40;;;3.23;;
5831;SDS011;50943;51.448;7.646;2023-08-01T10:58:43;9.43;;;3.13;;
5831;SDS011;50943;51.448;7.646;2023-08-01T11:01:09;6.53;;;3.10;;
5831;SDS011;50943;51.448;7.646;2023-08-01T11:03:36;5.60;;;3.10;;
5831;SDS011;50943;51.448;7.646;2023-08-01T11:06:04;9.80;;;4.13;;
5831;SDS011;50943;51.448;7.646;2023-08-01T11:08:34;7.40;;;4.77;;
5831;SDS011;50943;51.448;7.646;2023-08-01T11:11:01;9.00;;;4.30;;
5831;SDS011;50943;51.448;7.646;2023-08-01T11:13:29;6.30;;;4.40;;
5831;SDS011;50943;51.448;7.646;2023-08-01T11:15:55;8.53;;;4.77;;
5831;SDS011;50943;51.448;7.646;2023-08-01T11:18:22;11.10;;;6.00;;
5831;SDS011;50943;51.448;7.646;2023-08-01T11:20:48;18.70;;;8.60;;
5831;SDS011;50943;51.448;7.646;2023-08-01T11:23:16;13.33;;;8.23;;
5831;SDS011;50943;51.448;7.646;2023-08-01T11:25:43;11.07;;;5.43;;
5831;SDS011;50943;51.448;7.646;2023-08-01T11:28:14;10.47;;;6.00;;
5831;SDS011;50943;51.448;7.646;2023-08-01T11:30:42;8.17;;;4.90;;
5831;SDS011;50943;51.448;7.646;2023-08-01T11:33:16;6.77;;;3.70;;
5831;SDS011;50943;51.448;7.646;2023-08-01T11:35:45;7.90;;;3.33;;
5831;SDS011;50943;51.448;7.646;2023-08-01T11:38:12;6.90;;;3.80;;
5831;SDS011;50943;51.448;7.646;2023-08-01T11:40:39;8.33;;;3.27;;
5831;SDS011;50943;51.448;7.646;2023-08-01T11:43:06;9.73;;;3.73;;
5831;SDS011;50943;51.448;7.646;2023-08-01T11:45:33;7.13;;;3.57;;
5831;SDS011;50943;51.448;7.646;2023-08-01T11:47:59;7.00;;;3.93;;
5831;SDS011;50943;51.448;7.646;2023-08-01T11:50:26;11.03;;;4.87;;
5831;SDS011;50943;51.448;7.646;2023-08-01T11:52:53;8.60;;;4.03;;
5831;SDS011;50943;51.448;7.646;2023-08-01T11:55:23;7.20;;;4.23;;
5831;SDS011;50943;51.448;7.646;2023-08-01T11:57:52;8.33;;;4.67;;
5831;SDS011;50943;51.448;7.646;2023-08-01T12:00:23;7.80;;;4.30;;
5831;SDS011;50943;51.448;7.646;2023-08-01T12:02:50;5.20;;;3.57;;
5831;SDS011;50943;51.448;7.646;2023-08-01T12:05:23;6.53;;;4.13;;
5831;SDS011;50943;51.448;7.646;2023-08-01T12:07:49;7.90;;;4.10;;
5831;SDS011;50943;51.448;7.646;2023-08-01T12:10:16;7.30;;;3.67;;
5831;SDS011;50943;51.448;7.646;2023-08-01T12:12:43;7.63;;;4.07;;
5831;SDS011;50943;51.448;7.646;2023-08-01T12:15:12;6.57;;;4.30;;
5831;SDS011;50943;51.448;7.646;2023-08-01T12:17:39;7.77;;;4.50;;
5831;SDS011;50943;51.448;7.646;2023-08-01T12:20:06;13.17;;;4.43;;
5831;SDS011;50943;51.448;7.646;2023-08-01T12:22:33;7.43;;;3.83;;
5831;SDS011;50943;51.448;7.646;2023-08-01T12:25:00;8.20;;;3.50;;
5831;SDS011;50943;51.448;7.646;2023-08-01T12:27:26;6.47;;;4.47;;
5831;SDS011;50943;51.448;7.646;2023-08-01T12:29:52;8.97;;;4.53;;
5831;SDS011;50943;51.448;7.646;2023-08-01T12:32:20;12.30;;;5.40;;
5831;SDS011;50943;51.448;7.646;2023-08-01T12:34:47;14.30;;;6.47;;
5831;SDS011;50943;51.448;7.646;2023-08-01T12:37:13;10.80;;;7.43;;
5831;SDS011;50943;51.448;7.646;2023-08-01T12:39:40;13.07;;;8.13;;
5831;SDS011;50943;51.448;7.646;2023-08-01T12:42:06;14.67;;;10.03;;
5831;SDS011;50943;51.448;7.646;2023-08-01T12:44:33;15.27;;;8.60;;
5831;SDS011;50943;51.448;7.646;2023-08-01T12:47:00;14.87;;;7.23;;
5831;SDS011;50943;51.448;7.646;2023-08-01T12:49:28;15.57;;;6.40;;
5831;SDS011;50943;51.448;7.646;2023-08-01T12:51:54;11.83;;;7.10;;
5831;SDS011;50943;51.448;7.646;2023-08-01T12:54:22;14.60;;;6.50;;
5831;SDS011;50943;51.448;7.646;2023-08-01T12:56:49;14.33;;;7.07;;
5831;SDS011;50943;51.448;7.646;2023-08-01T12:59:15;12.60;;;6.77;;
5831;SDS011;50943;51.448;7.646;2023-08-01T13:01:42;10.80;;;6.97;;
5831;SDS011;50943;51.448;7.646;2023-08-01T13:04:08;12.00;;;6.40;;
5831;SDS011;50943;51.448;7.646;2023-08-01T13:06:36;10.70;;;6.40;;
5831;SDS011;50943;51.448;7.646;2023-08-01T13:09:03;14.97;;;6.73;;
5831;SDS011;50943;51.448;7.646;2023-08-01T13:11:30;9.80;;;6.40;;
5831;SDS011;50943;51.448;7.646;2023-08-01T13:13:56;10.83;;;6.90;;
5831;SDS011;50943;51.448;7.646;2023-08-01T13:16:23;16.43;;;6.93;;
5831;SDS011;50943;51.448;7.646;2023-08-01T13:18:49;13.37;;;6.37;;
5831;SDS011;50943;51.448;7.646;2023-08-01T13:21:16;13.50;;;6.60;;
5831;SDS011;50943;51.448;7.646;2023-08-01T13:23:44;8.00;;;6.50;;
5831;SDS011;50943;51.448;7.646;2023-08-01T13:26:10;12.60;;;5.13;;
5831;SDS011;50943;51.448;7.646;2023-08-01T13:28:37;14.10;;;5.23;;
5831;SDS011;50943;51.448;7.646;2023-08-01T13:31:03;11.77;;;5.83;;
5831;SDS011;50943;51.448;7.646;2023-08-01T13:33:30;11.33;;;6.10;;
5831;SDS011;50943;51.448;7.646;2023-08-01T13:35:56;16.50;;;6.57;;
5831;SDS011;50943;51.448;7.646;2023-08-01T13:38:24;14.90;;;8.17;;
5831;SDS011;50943;51.448;7.646;2023-08-01T13:40:53;14.90;;;7.60;;
5831;SDS011;50943;51.448;7.646;2023-08-01T13:43:19;7.60;;;4.80;;
5831;SDS011;50943;51.448;7.646;2023-08-01T13:45:46;6.50;;;3.57;;
5831;SDS011;50943;51.448;7.646;2023-08-01T13:48:12;6.53;;;2.63;;
5831;SDS011;50943;51.448;7.646;2023-08-01T13:50:39;5.07;;;2.60;;
5831;SDS011;50943;51.448;7.646;2023-08-01T13:53:05;6.83;;;2.60;;
5831;SDS011;50943;51.448;7.646;2023-08-01T13:55:35;6.03;;;2.17;;
5831;SDS011;50943;51.448;7.646;2023-08-01T13:58:03;5.00;;;2.30;;
5831;SDS011;50943;51.448;7.646;2023-08-01T14:00:29;4.50;;;1.97;;
5831;SDS011;50943;51.448;7.646;2023-08-01T14:02:56;6.67;;;2.30;;
5831;SDS011;50943;51.448;7.646;2023-08-01T14:05:24;4.50;;;2.23;;
5831;SDS011;50943;51.448;7.646;2023-08-01T14:07:51;4.83;;;1.90;;
5831;SDS011;50943;51.448;7.646;2023-08-01T14:10:17;4.80;;;2.30;;
5831;SDS011;50943;51.448;7.646;2023-08-01T14:12:44;4.00;;;2.20;;
5831;SDS011;50943;51.448;7.646;2023-08-01T14:15:12;5.60;;;2.10;;
5831;SDS011;50943;51.448;7.646;2023-08-01T14:17:38;8.10;;;1.90;;
5831;SDS011;50943;51.448;7.646;2023-08-01T14:20:06;9.03;;;2.03;;
5831;SDS011;50943;51.448;7.646;2023-08-01T14:22:34;5.43;;;2.43;;
5831;SDS011;50943;51.448;7.646;2023-08-01T14:25:00;5.73;;;2.20;;
5831;SDS011;50943;51.448;7.646;2023-08-01T14:27:27;6.17;;;2.30;;
5831;SDS011;50943;51.448;7.646;2023-08-01T14:29:53;6.43;;;2.20;;
5831;SDS011;50943;51.448;7.646;2023-08-01T14:32:21;2.67;;;1.93;;
5831;SDS011;50943;51.448;7.646;2023-08-01T14:34:48;3.03;;;1.70;;
5831;SDS011;50943;51.448;7.646;2023-08-01T14:37:14;3.80;;;2.03;;
5831;SDS011;50943;51.448;7.646;2023-08-01T14:39:41;5.10;;;2.03;;
5831;SDS011;50943;51.448;7.646;2023-08-01T14:42:07;8.50;;;2.00;;
5831;SDS011;50943;51.448;7.646;2023-08-01T14:44:34;4.20;;;2.10;;
5831;SDS011;50943;51.448;7.646;2023-08-01T14:47:00;4.50;;;2.10;;
5831;SDS011;50943;51.448;7.646;2023-08-01T14:49:28;8.50;;;2.03;;
5831;SDS011;50943;51.448;7.646;2023-08-01T14:51:55;3.67;;;2.00;;